This is the latest recevied weather packets stored in our database for station/object N5SNT-2. If no packets are shown the sender has not sent any weather packets the latest 10 day(s).
| Time | Temp. | Humidity | Pressure | Rain* | Wind** | Luminosity | Snow |
|---|---|---|---|---|---|---|---|
| 1777506444 | 23.89° C | 89% | 1011 hPa | 0 mm | - | 24 W/m² | - |
| 1777506143 | 23.89° C | 89% | 1010 hPa | 0 mm | - | 49 W/m² | - |
| 1777505843 | 24.44° C | 88% | 1010 hPa | 0 mm | - | 53 W/m² | - |
| 1777505543 | 25° C | 87% | 1010 hPa | 0 mm | - | 65 W/m² | - |
| 1777505243 | 25.56° C | 86% | 1010 hPa | 0 mm | - | 77 W/m² | - |
| 1777504944 | 26.67° C | 84% | 1010 hPa | 0 mm | - | 82 W/m² | - |
| 1777504644 | 27.78° C | 81% | 1010 hPa | 0 mm | - | 91 W/m² | - |
| 1777504344 | 27.78° C | 82% | 1010 hPa | 0 mm | - | 103 W/m² | - |
| 1777504044 | 27.78° C | 81% | 1010 hPa | 0 mm | - | 119 W/m² | - |
| 1777503744 | 28.33° C | 80% | 1010 hPa | 0 mm | - | 125 W/m² | - |
| 1777503444 | 28.33° C | 80% | 1010 hPa | 0 mm | - | 143 W/m² | - |
| 1777503143 | 27.78° C | 80% | 1010 hPa | 0 mm | - | 170 W/m² | - |
| 1777502844 | 27.78° C | 80% | 1010 hPa | 0 mm | - | 181 W/m² | - |
| 1777502544 | 27.78° C | 80% | 1010 hPa | 0 mm | - | 178 W/m² | - |
| 1777502243 | 28.33° C | 79% | 1010 hPa | 0 mm | - | 175 W/m² | - |
| 1777501943 | 28.33° C | 79% | 1010 hPa | 0 mm | - | 181 W/m² | - |
| 1777501643 | 28.33° C | 79% | 1010 hPa | 0 mm | - | 198 W/m² | - |
| 1777501346 | 28.33° C | 78% | 1010 hPa | 0 mm | - | 208 W/m² | - |
| 1777501043 | 28.89° C | 77% | 1010 hPa | 0 mm | - | 187 W/m² | - |
| 1777500743 | 28.89° C | 77% | 1010 hPa | 0 mm | - | 247 W/m² | - |
| 1777500444 | 28.33° C | 76% | 1010 hPa | 0 mm | - | 407 W/m² | - |
| 1777500143 | 28.33° C | 77% | 1010 hPa | 0 mm | - | 338 W/m² | - |
| 1777499845 | 28.33° C | 76% | 1010 hPa | 0 mm | - | 346 W/m² | - |
| 1777499544 | 28.33° C | 75% | 1010 hPa | 0 mm | - | 388 W/m² | - |
| 1777499243 | 28.33° C | 77% | 1010 hPa | 0 mm | - | 435 W/m² | - |
* Rain latest hour (hover to see other rain measurements)
** Current wind speed in m/s (hover to see current wind gust speed)